Time;durP1;ratioP1;P1;durP2;ratioP2;P2;SDS_P1;SDS_P2;PMS_P1;PMS_P2;Temp;Humidity;BMP_temperature;BMP_pressure;BME280_temperature;BME280_humidity;BME280_pressure;Samples;Min_cycle;Max_cycle;Signal;HPM_P1;HPM_P2
2022/07/11 00:02:26;;;;;;;1.40;0.65;;;;;;;13.24;100.00;101280.00;5172168;28;20435;-75
2022/07/11 00:04:57;;;;;;;1.75;0.60;;;;;;;13.25;100.00;101286.97;5191299;28;20514;-75
2022/07/11 00:07:28;;;;;;;1.90;0.60;;;;;;;13.12;100.00;101291.78;5188113;28;20411;-75
2022/07/11 00:09:58;;;;;;;2.95;0.70;;;;;;;13.06;100.00;101284.09;5177013;28;20044;-75
2022/07/11 00:12:29;;;;;;;5.03;0.60;;;;;;;13.07;100.00;101287.59;5186483;28;20018;-75
2022/07/11 00:14:59;;;;;;;3.83;0.55;;;;;;;12.99;100.00;101290.50;5188810;28;20104;-75
2022/07/11 00:17:30;;;;;;;1.67;0.65;;;;;;;13.10;100.00;101284.88;5188579;28;20018;-75
2022/07/11 00:20:00;;;;;;;5.15;0.70;;;;;;;13.00;100.00;101291.31;5173970;28;20038;-75
2022/07/11 00:22:31;;;;;;;3.03;0.88;;;;;;;13.02;100.00;101290.38;5189403;28;20030;-75
2022/07/11 00:25:01;;;;;;;3.35;0.70;;;;;;;12.95;100.00;101282.75;5190591;28;20116;-75
2022/07/11 00:27:32;;;;;;;2.83;1.02;;;;;;;12.95;100.00;101285.38;5171969;28;20046;-75
2022/07/11 00:30:02;;;;;;;2.45;0.57;;;;;;;12.89;100.00;101290.81;5186610;28;20383;-75
2022/07/11 00:32:33;;;;;;;3.53;0.82;;;;;;;12.80;100.00;101290.28;5186734;28;20453;-76
2022/07/11 00:35:03;;;;;;;2.20;0.63;;;;;;;12.46;100.00;101295.72;5189074;28;20030;-75
2022/07/11 00:37:34;;;;;;;3.75;0.98;;;;;;;12.31;100.00;101292.75;5190484;28;20501;-75
2022/07/11 00:40:05;;;;;;;1.58;0.57;;;;;;;12.46;100.00;101290.50;5187361;28;20084;-75
2022/07/11 00:42:36;;;;;;;3.35;0.70;;;;;;;12.67;100.00;101287.16;5186025;28;20021;-75
2022/07/11 00:45:07;;;;;;;2.33;0.68;;;;;;;12.87;100.00;101284.78;5190910;28;20354;-75
2022/07/11 00:47:37;;;;;;;4.28;0.60;;;;;;;13.05;100.00;101286.81;5190121;28;20628;-75
2022/07/11 00:50:08;;;;;;;0.77;0.50;;;;;;;13.12;100.00;101285.66;5189666;28;20108;-75
2022/07/11 00:52:40;;;;;;;2.10;0.85;;;;;;;12.91;100.00;101281.13;5188713;28;20037;-75
2022/07/11 00:55:11;;;;;;;3.88;0.90;;;;;;;12.75;100.00;101285.16;5189970;28;20487;-74
2022/07/11 00:57:42;;;;;;;2.75;0.70;;;;;;;12.54;100.00;101283.25;5189751;28;20047;-75
2022/07/11 01:00:13;;;;;;;1.85;0.60;;;;;;;12.44;100.00;101283.59;5187728;28;20029;-75
2022/07/11 01:02:43;;;;;;;2.00;0.65;;;;;;;12.40;100.00;101281.97;5189776;28;20380;-75
2022/07/11 01:05:13;;;;;;;3.13;0.65;;;;;;;12.41;100.00;101271.44;5187637;28;20088;-75
2022/07/11 01:07:44;;;;;;;2.10;0.60;;;;;;;12.70;100.00;101287.09;5189622;28;20062;-76
2022/07/11 01:10:14;;;;;;;2.47;0.80;;;;;;;12.86;100.00;101277.81;5186474;28;20332;-75
2022/07/11 01:12:45;;;;;;;3.28;0.70;;;;;;;12.94;100.00;101281.06;5182541;28;20026;-75
2022/07/11 01:15:15;;;;;;;3.55;0.80;;;;;;;12.97;100.00;101280.94;5206723;28;20052;-75
2022/07/11 01:17:46;;;;;;;4.68;0.90;;;;;;;12.88;100.00;101281.25;5186697;28;20037;-74
2022/07/11 01:20:17;;;;;;;1.83;0.60;;;;;;;12.90;100.00;101279.41;5190350;28;20029;-75
2022/07/11 01:22:51;;;;;;;3.05;0.75;;;;;;;13.11;100.00;101276.97;5187323;28;20124;-75
2022/07/11 01:25:31;;;;;;;1.23;0.65;;;;;;;13.29;100.00;101275.44;5182561;28;20029;-75
2022/07/11 01:28:04;;;;;;;2.90;0.80;;;;;;;13.43;100.00;101271.41;5188426;28;20191;-75
2022/07/11 01:30:35;;;;;;;1.70;0.60;;;;;;;13.51;100.00;101273.75;5188089;28;20041;-75
2022/07/11 01:33:05;;;;;;;3.33;0.80;;;;;;;13.51;100.00;101268.50;5188601;28;20388;-75
2022/07/11 01:35:35;;;;;;;1.85;0.73;;;;;;;13.56;100.00;101264.78;5188412;28;20041;-75
2022/07/11 01:38:06;;;;;;;2.30;0.60;;;;;;;13.62;100.00;101255.84;5188181;28;20030;-72
2022/07/11 01:40:36;;;;;;;1.63;0.70;;;;;;;13.68;100.00;101256.47;5189391;28;20150;-75
2022/07/11 01:43:06;;;;;;;2.70;0.60;;;;;;;13.79;100.00;101248.19;5187975;28;20068;-76
2022/07/11 01:45:37;;;;;;;3.28;0.70;;;;;;;13.88;100.00;101253.09;5189976;28;20030;-76
2022/07/11 01:48:07;;;;;;;2.65;0.77;;;;;;;13.86;100.00;101260.16;5189041;28;20337;-74
2022/07/11 01:50:37;;;;;;;2.35;0.65;;;;;;;14.03;100.00;101255.13;5188560;28;20034;-76
2022/07/11 01:53:08;;;;;;;1.17;0.65;;;;;;;14.05;100.00;101255.94;5189018;28;20048;-75
2022/07/11 01:55:38;;;;;;;2.97;0.60;;;;;;;14.04;100.00;101254.19;5188424;28;20033;-76
2022/07/11 01:58:09;;;;;;;2.17;0.60;;;;;;;14.00;100.00;101252.59;5187380;28;20033;-75
2022/07/11 02:00:39;;;;;;;2.20;0.70;;;;;;;13.84;100.00;101256.75;5188344;28;20025;-75
2022/07/11 02:03:10;;;;;;;1.38;0.70;;;;;;;13.47;100.00;101261.66;5171282;28;20037;-76
2022/07/11 02:05:40;;;;;;;2.60;0.77;;;;;;;13.59;100.00;101261.22;5189940;28;20021;-76
2022/07/11 02:08:13;;;;;;;0.95;0.60;;;;;;;13.67;100.00;101257.38;5186483;28;20037;-75
2022/07/11 02:10:49;;;;;;;3.35;0.60;;;;;;;13.91;100.00;101259.06;5189207;28;20075;-75
2022/07/11 02:13:20;;;;;;;;;;;;;;;14.14;100.00;101258.19;5186333;28;20360;-75
2022/07/11 02:15:51;;;;;;;2.08;0.60;;;;;;;14.36;100.00;101256.44;5186161;28;19963;-75
2022/07/11 02:18:21;;;;;;;2.58;0.60;;;;;;;14.47;100.00;101251.63;5182810;28;20056;-75
2022/07/11 02:20:51;;;;;;;4.72;0.77;;;;;;;14.59;100.00;101253.78;5191806;28;20025;-75
2022/07/11 02:23:22;;;;;;;2.33;0.82;;;;;;;14.78;100.00;101241.56;5189173;28;20113;-75
2022/07/11 02:25:53;;;;;;;1.90;0.63;;;;;;;14.73;100.00;101248.78;5195048;28;20220;-75
2022/07/11 02:28:23;;;;;;;3.40;0.75;;;;;;;14.77;100.00;101242.47;5189303;28;20026;-75
2022/07/11 02:30:53;;;;;;;2.55;0.90;;;;;;;14.73;100.00;101246.16;5195194;28;20063;-75
2022/07/11 02:33:24;;;;;;;2.63;0.88;;;;;;;14.76;100.00;101246.03;5191698;28;20022;-75
2022/07/11 02:35:54;;;;;;;3.63;1.00;;;;;;;14.78;100.00;101247.66;5194832;28;20025;-75
2022/07/11 02:38:24;;;;;;;3.28;0.95;;;;;;;14.75;100.00;101242.53;5191329;28;20060;-75
2022/07/11 02:40:55;;;;;;;3.22;0.90;;;;;;;14.62;100.00;101248.38;5194909;28;20037;-75
2022/07/11 02:43:25;;;;;;;3.42;0.90;;;;;;;14.61;100.00;101257.19;5190696;28;20108;-76
2022/07/11 02:45:56;;;;;;;2.47;1.10;;;;;;;14.64;100.00;101257.06;5191748;28;20022;-76
2022/07/11 02:48:26;;;;;;;3.95;1.27;;;;;;;14.73;100.00;101256.69;5193718;28;20018;-75
2022/07/11 02:50:57;;;;;;;3.47;1.13;;;;;;;14.57;100.00;101264.34;5192065;28;20115;-75
2022/07/11 02:53:27;;;;;;;2.55;1.02;;;;;;;14.70;100.00;101262.91;5193998;28;20150;-76
2022/07/11 02:55:57;;;;;;;2.47;0.85;;;;;;;14.70;100.00;101262.06;5190331;28;20525;-75
2022/07/11 02:58:28;;;;;;;2.90;1.20;;;;;;;14.74;100.00;101258.41;5193295;28;20040;-75
2022/07/11 03:00:59;;;;;;;3.78;1.02;;;;;;;14.77;100.00;101260.91;5192052;28;20022;-75
2022/07/11 03:03:29;;;;;;;3.05;1.33;;;;;;;14.92;100.00;101264.59;5193862;28;20029;-75
2022/07/11 03:06:00;;;;;;;3.42;1.17;;;;;;;14.82;100.00;101272.94;5191916;28;20021;-75
2022/07/11 03:08:30;;;;;;;4.22;1.25;;;;;;;14.77;100.00;101268.78;5191768;28;20636;-75
2022/07/11 03:11:00;;;;;;;3.78;1.27;;;;;;;14.87;100.00;101261.28;5189213;28;20029;-75
2022/07/11 03:13:31;;;;;;;4.85;1.38;;;;;;;14.82;100.00;101266.81;5188344;28;20018;-75
2022/07/11 03:16:02;;;;;;;4.03;1.10;;;;;;;14.86;100.00;101264.00;5192019;28;20129;-75
2022/07/11 03:18:32;;;;;;;4.60;1.33;;;;;;;14.84;100.00;101274.56;5192599;28;20028;-75
2022/07/11 03:21:02;;;;;;;4.88;1.40;;;;;;;14.90;100.00;101274.34;5191699;28;20037;-75
2022/07/11 03:23:34;;;;;;;2.60;1.20;;;;;;;14.93;100.00;101265.44;5191607;28;20029;-76
2022/07/11 03:26:04;;;;;;;4.90;1.20;;;;;;;14.84;100.00;101271.94;5192162;28;20040;-72
2022/07/11 03:28:35;;;;;;;3.55;1.33;;;;;;;14.93;100.00;101261.03;5192035;28;20025;-76
2022/07/11 03:31:05;;;;;;;4.63;1.58;;;;;;;15.04;100.00;101268.50;5192228;28;20042;-75
2022/07/11 03:33:35;;;;;;;5.22;1.08;;;;;;;14.83;100.00;101264.97;5192108;28;20421;-75
2022/07/11 03:36:06;;;;;;;3.17;1.10;;;;;;;14.79;100.00;101264.31;5191346;28;20045;-75
2022/07/11 03:38:37;;;;;;;3.63;1.48;;;;;;;14.93;100.00;101263.69;5191658;28;20024;-74
2022/07/11 03:41:08;;;;;;;4.70;1.10;;;;;;;14.87;100.00;101258.66;5185523;28;20031;-75
2022/07/11 03:43:38;;;;;;;3.50;1.10;;;;;;;14.98;100.00;101264.34;5200398;23;20112;-72
2022/07/11 03:46:09;;;;;;;4.60;1.33;;;;;;;15.09;100.00;101264.75;5166526;28;20026;-74
2022/07/11 03:48:39;;;;;;;6.07;1.42;;;;;;;14.98;100.00;101266.97;5185062;28;20058;-73
2022/07/11 03:51:10;;;;;;;4.43;1.48;;;;;;;15.00;100.00;101259.84;5169787;28;20037;-73
2022/07/11 03:53:40;;;;;;;4.20;1.20;;;;;;;15.08;100.00;101262.16;5169753;28;20037;-72
2022/07/11 03:56:10;;;;;;;4.05;1.25;;;;;;;15.02;100.00;101258.00;5169239;28;20034;-73
2022/07/11 03:58:41;;;;;;;3.28;1.42;;;;;;;15.09;100.00;101256.84;5171821;28;20475;-72
2022/07/11 04:01:11;;;;;;;3.35;1.27;;;;;;;14.98;100.00;101258.22;5169567;28;20120;-74
2022/07/11 04:03:41;;;;;;;4.53;1.40;;;;;;;15.08;100.00;101259.53;5170723;28;20163;-73
2022/07/11 04:06:13;;;;;;;4.40;1.55;;;;;;;15.17;100.00;101259.97;5171952;28;20018;-73
2022/07/11 04:08:43;;;;;;;3.40;1.70;;;;;;;15.12;100.00;101267.25;5169702;28;20080;-73
2022/07/11 04:11:14;;;;;;;6.13;1.60;;;;;;;15.17;100.00;101264.41;5167396;28;20025;-74
2022/07/11 04:13:44;;;;;;;3.67;1.30;;;;;;;15.10;100.00;101262.94;5166216;28;20121;-73
2022/07/11 04:16:15;;;;;;;8.10;1.50;;;;;;;15.16;100.00;101262.69;5179950;28;20030;-72
2022/07/11 04:18:45;;;;;;;4.65;1.65;;;;;;;15.32;100.00;101263.78;5171342;28;20154;-73
2022/07/11 04:21:15;;;;;;;8.90;1.77;;;;;;;15.45;100.00;101262.28;5171713;28;20029;-72
2022/07/11 04:23:46;;;;;;;3.78;1.80;;;;;;;15.53;100.00;101257.56;5166988;28;20023;-73
2022/07/11 04:26:16;;;;;;;5.38;1.70;;;;;;;15.63;100.00;101259.69;5169261;28;20026;-73
2022/07/11 04:28:46;;;;;;;5.05;1.92;;;;;;;15.50;100.00;101258.53;5170053;28;20423;-73
2022/07/11 04:31:17;;;;;;;5.57;1.52;;;;;;;15.56;100.00;101270.59;5150548;28;20030;-75
2022/07/11 04:33:47;;;;;;;3.63;1.80;;;;;;;15.57;100.00;101267.88;5171352;28;20438;-72
2022/07/11 04:36:17;;;;;;;6.15;1.92;;;;;;;15.75;100.00;101266.19;5171096;28;20495;-72
2022/07/11 04:38:49;;;;;;;5.43;1.92;;;;;;;15.86;100.00;101267.41;5167073;28;20451;-73
2022/07/11 04:41:20;;;;;;;4.82;2.13;;;;;;;15.91;100.00;101260.13;5166089;28;20022;-73
2022/07/11 04:43:50;;;;;;;4.95;1.60;;;;;;;15.77;100.00;101273.13;5164049;28;20084;-73
2022/07/11 04:46:20;;;;;;;5.85;1.60;;;;;;;15.84;100.00;101268.41;5170946;28;20021;-73
2022/07/11 04:48:51;;;;;;;8.60;2.42;;;;;;;16.29;100.00;101266.25;5166719;28;20026;-73
2022/07/11 04:51:21;;;;;;;7.60;2.67;;;;;;;17.20;100.00;101256.34;5160841;28;20159;-72
2022/07/11 04:53:52;;;;;;;3.92;1.92;;;;;;;17.99;93.42;101259.13;5165403;28;20116;-73
2022/07/11 04:56:22;;;;;;;4.13;1.90;;;;;;;17.93;93.28;101262.09;5166505;28;20031;-73
2022/07/11 04:58:52;;;;;;;4.88;1.83;;;;;;;17.63;95.20;101263.78;5170280;28;20026;-72
2022/07/11 05:01:23;;;;;;;5.80;2.13;;;;;;;17.27;98.21;101258.59;5166575;28;20377;-72
2022/07/11 05:03:53;;;;;;;5.07;1.83;;;;;;;16.98;99.31;101268.94;5170330;28;20029;-73
2022/07/11 05:06:23;;;;;;;4.00;1.90;;;;;;;16.87;100.00;101266.00;5183068;28;20030;-73
2022/07/11 05:08:54;;;;;;;5.72;2.17;;;;;;;16.85;100.00;101267.84;5169815;28;20034;-72
2022/07/11 05:11:24;;;;;;;4.82;2.20;;;;;;;16.42;100.00;101272.69;5164077;28;20026;-73
2022/07/11 05:13:55;;;;;;;5.70;2.30;;;;;;;16.43;100.00;101274.41;5165905;28;20041;-73
2022/07/11 05:16:25;;;;;;;6.53;2.90;;;;;;;16.42;100.00;101278.81;5168095;28;20118;-73
2022/07/11 05:18:56;;;;;;;5.13;2.75;;;;;;;16.24;100.00;101284.09;5169649;28;20483;-73
2022/07/11 05:21:26;;;;;;;4.65;2.55;;;;;;;16.38;100.00;101277.25;5150875;28;20037;-73
2022/07/11 05:23:57;;;;;;;5.32;2.67;;;;;;;16.37;100.00;101280.81;5168451;28;20031;-72
2022/07/11 05:26:27;;;;;;;7.80;2.80;;;;;;;16.54;100.00;101275.56;5169655;28;20038;-72
2022/07/11 05:28:57;;;;;;;4.68;2.50;;;;;;;16.66;100.00;101280.25;5170521;28;20021;-74
2022/07/11 05:31:28;;;;;;;4.68;2.22;;;;;;;17.85;97.58;101278.38;5163601;28;20030;-75
2022/07/11 05:33:58;;;;;;;5.32;2.60;;;;;;;18.42;92.39;101271.69;5164570;28;20030;-74
2022/07/11 05:36:28;;;;;;;4.88;2.20;;;;;;;17.77;92.85;101277.09;5165984;28;20108;-73
2022/07/11 05:38:59;;;;;;;4.78;2.25;;;;;;;17.80;93.90;101275.16;5165906;28;20081;-74
2022/07/11 05:41:29;;;;;;;5.97;2.17;;;;;;;17.67;94.11;101278.53;5164309;28;20521;-73
2022/07/11 05:43:59;;;;;;;6.97;2.22;;;;;;;17.63;94.11;101274.34;5166042;28;20324;-73
2022/07/11 05:46:30;;;;;;;3.90;2.00;;;;;;;17.65;94.81;101277.75;5169031;28;20077;-73
2022/07/11 05:49:00;;;;;;;7.68;2.60;;;;;;;19.24;86.96;101270.31;5166427;28;20038;-74
2022/07/11 05:51:30;;;;;;;5.90;1.98;;;;;;;18.64;89.05;101267.75;5168533;28;20026;-73
2022/07/11 05:54:01;;;;;;;4.60;1.70;;;;;;;18.92;86.29;101268.69;5168902;28;20387;-73
2022/07/11 05:56:31;;;;;;;5.28;1.65;;;;;;;18.20;88.02;101276.47;5166216;28;20022;-73
2022/07/11 05:59:02;;;;;;;5.07;1.77;;;;;;;18.02;91.04;101278.31;5170215;28;20089;-73
2022/07/11 06:01:33;;;;;;;4.38;1.77;;;;;;;18.02;92.42;101282.78;5174148;28;20510;-73
2022/07/11 06:04:03;;;;;;;5.25;1.73;;;;;;;18.83;88.44;101285.16;5169547;28;20060;-72
2022/07/11 06:06:34;;;;;;;3.08;1.30;;;;;;;19.08;85.70;101293.34;5173410;28;20467;-73
2022/07/11 06:09:04;;;;;;;3.70;1.23;;;;;;;19.68;84.17;101288.84;5171607;28;20459;-75
2022/07/11 06:11:35;;;;;;;4.05;1.40;;;;;;;19.69;81.99;101294.06;5165195;28;20030;-72
2022/07/11 06:14:05;;;;;;;1.98;1.00;;;;;;;20.17;80.51;101299.00;5170469;28;20058;-73
2022/07/11 06:16:36;;;;;;;3.92;1.30;;;;;;;20.51;78.62;101297.69;5169097;28;20030;-72
2022/07/11 06:19:06;;;;;;;2.65;1.00;;;;;;;20.74;78.38;101292.56;5171587;28;20029;-73
2022/07/11 06:21:37;;;;;;;3.92;1.20;;;;;;;20.83;76.74;101300.81;5186929;28;20152;-72
2022/07/11 06:24:08;;;;;;;3.58;1.15;;;;;;;21.14;73.84;101288.97;5154233;28;20021;-73
2022/07/11 06:26:38;;;;;;;2.83;0.95;;;;;;;21.67;74.83;101291.50;5169874;28;20022;-73
2022/07/11 06:29:09;;;;;;;2.95;0.98;;;;;;;22.19;72.16;101279.72;5169852;28;20197;-73
2022/07/11 06:31:39;;;;;;;3.25;1.10;;;;;;;21.77;73.06;101281.91;5165510;28;20906;-74
2022/07/11 06:34:09;;;;;;;3.47;1.08;;;;;;;21.57;71.20;101280.59;5171051;28;20114;-73
2022/07/11 06:36:40;;;;;;;2.80;0.77;;;;;;;21.99;71.69;101279.44;5171573;28;20052;-74
2022/07/11 06:39:10;;;;;;;1.98;0.98;;;;;;;21.83;72.38;101273.50;5172212;28;20038;-73
2022/07/11 06:41:40;;;;;;;1.95;0.80;;;;;;;21.98;71.22;101275.94;5165340;28;20046;-74
2022/07/11 06:44:11;;;;;;;2.58;0.80;;;;;;;22.85;67.84;101270.28;5168850;28;20029;-73
2022/07/11 06:46:41;;;;;;;2.97;1.10;;;;;;;23.16;68.29;101280.38;5171831;28;20018;-73
2022/07/11 06:49:13;;;;;;;2.92;0.70;;;;;;;22.99;66.79;101272.78;5171876;28;20030;-74
2022/07/11 06:51:43;;;;;;;3.05;0.80;;;;;;;23.55;65.25;101277.31;5171494;28;20058;-74
2022/07/11 06:54:13;;;;;;;4.45;0.90;;;;;;;23.57;64.77;101275.34;5173027;28;20391;-73
2022/07/11 06:56:44;;;;;;;4.72;0.85;;;;;;;24.33;64.84;101271.00;5171001;28;20037;-73
2022/07/11 06:59:14;;;;;;;3.05;1.08;;;;;;;24.59;65.05;101269.72;5170722;28;20115;-75
2022/07/11 07:01:44;;;;;;;1.75;0.80;;;;;;;23.18;64.83;101285.63;5170459;28;20037;-75
2022/07/11 07:04:15;;;;;;;3.65;1.00;;;;;;;23.41;65.19;101280.22;5172085;28;20107;-73
2022/07/11 07:06:46;;;;;;;2.45;0.73;;;;;;;23.89;64.89;101271.03;5151489;28;20044;-73
2022/07/11 07:09:16;;;;;;;1.40;0.70;;;;;;;23.90;64.24;101270.06;5166151;28;20083;-74
2022/07/11 07:11:47;;;;;;;3.30;1.05;;;;;;;24.52;63.46;101268.56;5162669;28;20502;-74
2022/07/11 07:14:17;;;;;;;2.25;1.00;;;;;;;23.92;63.93;101276.16;5165865;28;20044;-73
2022/07/11 07:16:48;;;;;;;2.95;0.90;;;;;;;23.73;64.77;101281.19;5164688;28;20124;-73
2022/07/11 07:19:18;;;;;;;2.88;0.95;;;;;;;24.26;63.52;101275.16;5166014;28;20047;-72
2022/07/11 07:21:48;;;;;;;3.03;0.90;;;;;;;25.43;61.25;101274.09;5172022;28;20034;-74
2022/07/11 07:24:19;;;;;;;2.22;0.88;;;;;;;23.52;66.91;101269.53;5169334;28;20120;-74
2022/07/11 07:26:49;;;;;;;2.33;0.80;;;;;;;24.81;61.62;101275.03;5171429;28;20025;-74
2022/07/11 07:29:20;;;;;;;4.07;0.98;;;;;;;25.54;59.41;101265.16;5168570;28;20022;-74
2022/07/11 07:31:52;;;;;;;2.95;1.00;;;;;;;24.15;63.88;101276.97;5168339;28;20092;-73
2022/07/11 07:34:23;;;;;;;3.95;1.20;;;;;;;23.80;63.47;101282.44;5171907;28;20033;-73
2022/07/11 07:36:53;;;;;;;3.45;1.00;;;;;;;23.27;65.25;101285.75;5163241;28;20435;-72
2022/07/11 07:39:24;;;;;;;1.77;0.60;;;;;;;21.95;67.46;101288.59;5171392;28;20022;-73
2022/07/11 07:41:54;;;;;;;4.15;0.68;;;;;;;21.61;68.03;101290.06;5165236;28;20033;-72
2022/07/11 07:44:24;;;;;;;4.47;0.63;;;;;;;21.82;67.38;101299.28;5168282;28;20030;-72
2022/07/11 07:46:56;;;;;;;2.00;0.70;;;;;;;21.81;68.01;101286.06;5169525;28;20292;-73
2022/07/11 07:49:27;;;;;;;2.95;0.90;;;;;;;22.93;66.92;101291.91;5171307;28;20025;-73
2022/07/11 07:51:57;;;;;;;2.17;0.90;;;;;;;24.12;63.24;101275.41;5168980;28;20038;-74
2022/07/11 07:54:27;;;;;;;2.13;0.80;;;;;;;24.84;60.99;101280.94;5170940;28;20037;-73
2022/07/11 07:56:58;;;;;;;2.88;0.80;;;;;;;25.09;59.62;101288.63;5168514;28;20026;-73
2022/07/11 07:59:28;;;;;;;1.33;0.70;;;;;;;25.67;59.49;101287.22;5171023;28;20400;-73
2022/07/11 08:01:58;;;;;;;1.88;0.73;;;;;;;24.40;62.06;101290.06;5168752;28;20040;-74
2022/07/11 08:04:29;;;;;;;4.07;0.65;;;;;;;26.04;60.08;101289.22;5172036;28;20057;-74
2022/07/11 08:06:59;;;;;;;16.23;2.38;;;;;;;25.09;61.26;101299.34;5169492;28;20416;-73
2022/07/11 08:09:30;;;;;;;2.72;0.82;;;;;;;25.62;59.69;101297.44;5170197;28;20109;-73
2022/07/11 08:12:00;;;;;;;1.70;0.60;;;;;;;26.27;57.91;101292.56;5163988;28;20455;-74
2022/07/11 08:14:31;;;;;;;2.42;0.77;;;;;;;26.40;56.87;101290.47;5168309;28;20447;-74
2022/07/11 08:17:02;;;;;;;1.92;0.63;;;;;;;27.25;56.64;101285.25;5168611;28;20031;-73
2022/07/11 08:19:33;;;;;;;3.03;0.82;;;;;;;27.89;55.44;101283.53;5170809;28;20057;-75
2022/07/11 08:22:03;;;;;;;0.90;0.50;;;;;;;26.65;55.74;101295.38;5168961;28;20561;-72
2022/07/11 08:24:33;;;;;;;1.02;0.60;;;;;;;25.14;58.07;101305.13;5171162;28;20076;-73
2022/07/11 08:27:04;;;;;;;1.33;0.52;;;;;;;25.00;58.14;101300.09;5170438;28;20149;-73
2022/07/11 08:29:35;;;;;;;2.47;0.60;;;;;;;26.01;57.27;101294.03;5170521;28;20049;-73
2022/07/11 08:32:05;;;;;;;1.05;0.50;;;;;;;25.67;58.00;101295.25;5169154;28;20625;-74
2022/07/11 08:34:36;;;;;;;4.00;0.70;;;;;;;28.53;54.91;101281.66;5169269;28;20025;-74
2022/07/11 08:37:06;;;;;;;1.25;0.55;;;;;;;28.42;52.49;101280.03;5169098;28;20134;-73
2022/07/11 08:39:37;;;;;;;2.15;0.55;;;;;;;28.23;52.39;101282.81;5168923;28;20034;-73
2022/07/11 08:42:07;;;;;;;2.40;0.75;;;;;;;27.70;53.94;101286.25;5148273;28;20022;-73
2022/07/11 08:44:39;;;;;;;2.10;0.52;;;;;;;27.61;54.04;101285.28;5164696;28;20121;-74
2022/07/11 08:47:11;;;;;;;1.48;0.50;;;;;;;26.63;55.42;101286.59;5141452;28;20273;-74
2022/07/11 08:49:44;;;;;;;1.20;0.60;;;;;;;24.56;58.51;101295.88;5142829;28;20044;-73
2022/07/11 08:52:15;;;;;;;1.23;0.50;;;;;;;24.01;60.67;101293.28;5180425;28;20080;-72
2022/07/11 08:54:46;;;;;;;1.42;0.70;;;;;;;25.44;59.11;101297.22;5167167;28;20034;-72
2022/07/11 08:57:18;;;;;;;1.50;0.75;;;;;;;24.46;59.48;101287.75;5169165;28;20037;-71
2022/07/11 08:59:52;;;;;;;3.05;0.77;;;;;;;25.47;59.27;101288.09;5150514;28;20105;-73
2022/07/11 09:02:24;;;;;;;1.90;0.70;;;;;;;24.74;59.49;101282.69;5179777;28;20026;-73
2022/07/11 09:04:54;;;;;;;3.00;0.85;;;;;;;24.38;60.34;101287.50;5171342;28;20034;-73
2022/07/11 09:07:25;;;;;;;1.23;0.70;;;;;;;24.05;62.09;101282.19;5167546;28;20062;-73
2022/07/11 09:09:55;;;;;;;1.98;0.68;;;;;;;23.88;62.43;101290.69;5168665;28;20149;-74
2022/07/11 09:12:26;;;;;;;3.60;0.90;;;;;;;25.58;58.80;101279.97;5166042;28;20030;-73
2022/07/11 09:14:56;;;;;;;4.40;0.73;;;;;;;27.05;55.63;101276.31;5167272;28;20018;-73
2022/07/11 09:17:32;;;;;;;2.55;0.80;;;;;;;26.74;56.61;101273.91;5164389;28;20403;-73
2022/07/11 09:20:02;;;;;;;3.38;0.90;;;;;;;26.75;56.15;101271.06;5165338;28;20036;-73
2022/07/11 09:25:31;;;;;;;2.28;0.57;;;;;;;27.78;54.62;101267.59;5163860;28;20182;-73
2022/07/11 09:28:04;;;;;;;3.38;0.77;;;;;;;29.50;51.20;101253.63;5168138;28;20037;-75
2022/07/11 09:30:43;;;;;;;3.78;0.82;;;;;;;27.87;53.37;101270.25;5151769;28;20491;-74
2022/07/11 09:33:14;;;;;;;1.70;0.80;;;;;;;25.22;57.89;101267.06;5181194;28;20026;-73
2022/07/11 09:35:45;;;;;;;3.22;0.80;;;;;;;25.65;58.84;101260.56;5166407;28;20033;-73
2022/07/11 09:38:16;;;;;;;1.90;0.77;;;;;;;25.30;60.62;101267.28;5168103;28;20022;-73
2022/07/11 09:40:48;;;;;;;2.58;0.90;;;;;;;25.04;59.59;101268.59;5162903;28;20038;-71
2022/07/11 09:43:25;;;;;;;1.15;0.80;;;;;;;24.06;62.36;101265.19;5188607;23;20053;-71
2022/07/11 09:46:05;;;;;;;1.02;0.60;;;;;;;25.95;60.67;101267.75;5210162;28;20029;-73
2022/07/11 09:48:36;;;;;;;3.42;0.75;;;;;;;25.24;60.64;101257.06;5196884;28;20021;-74
2022/07/11 09:51:06;;;;;;;1.00;0.50;;;;;;;26.24;59.07;101263.34;5197959;28;20099;-73
2022/07/11 09:53:53;;;;;;;2.67;0.50;;;;;;;27.44;56.16;101248.44;5192868;28;20029;-74
2022/07/11 09:56:39;;;;;;;2.03;0.50;;;;;;;27.34;55.73;101252.13;5195591;28;20502;-74
2022/07/11 09:59:11;;;;;;;1.50;0.50;;;;;;;27.74;55.46;101248.22;5197161;28;20033;-74
2022/07/11 10:01:41;;;;;;;1.77;0.43;;;;;;;27.39;56.73;101250.72;5197270;28;20038;-74
2022/07/11 10:04:12;;;;;;;2.10;0.40;;;;;;;26.61;56.90;101256.38;5197359;28;20036;-73
2022/07/11 10:06:42;;;;;;;0.93;0.43;;;;;;;25.48;58.39;101263.00;5205762;28;20092;-74
2022/07/11 10:09:13;;;;;;;0.38;0.20;;;;;;;26.62;57.95;101258.06;5197204;28;20116;-73
2022/07/11 10:11:43;;;;;;;1.77;0.60;;;;;;;27.17;55.02;101252.88;5197008;28;20025;-74
2022/07/11 10:14:14;;;;;;;1.27;0.38;;;;;;;26.32;56.70;101264.34;5198166;28;20033;-74
2022/07/11 10:17:03;;;;;;;0.65;0.30;;;;;;;25.33;59.27;101264.31;5197479;28;20037;-74
2022/07/11 10:19:43;;;;;;;1.50;0.40;;;;;;;25.22;59.67;101264.38;5196648;28;20036;-74
2022/07/11 10:22:14;;;;;;;1.42;0.45;;;;;;;24.66;60.97;101267.41;5197851;28;20025;-74
2022/07/11 10:24:53;;;;;;;0.40;0.30;;;;;;;23.94;63.38;101263.53;5193784;28;20500;-74
2022/07/11 10:27:39;;;;;;;0.80;0.30;;;;;;;23.72;63.74;101263.47;5194140;28;20406;-74
2022/07/11 10:30:09;;;;;;;3.30;0.55;;;;;;;23.35;64.65;101269.16;5199269;28;20032;-74
2022/07/11 10:33:06;;;;;;;1.05;0.40;;;;;;;22.63;65.40;101273.84;5198601;28;20227;-74
2022/07/11 10:35:52;;;;;;;1.55;0.30;;;;;;;23.36;66.10;101271.69;5191073;28;20088;-74
2022/07/11 10:38:23;;;;;;;4.97;0.63;;;;;;;23.81;65.97;101259.22;5172902;28;20129;-74
2022/07/11 10:40:56;;;;;;;2.70;0.50;;;;;;;23.72;65.79;101268.81;5198681;28;20552;-74
2022/07/11 10:43:30;;;;;;;1.92;0.68;;;;;;;22.82;67.12;101283.84;5205744;28;20044;-74
2022/07/11 10:46:01;;;;;;;2.70;0.85;;;;;;;22.33;68.57;101289.38;5197029;28;20049;-74
2022/07/11 10:48:35;;;;;;;2.78;0.70;;;;;;;22.70;68.75;101286.59;5192191;28;20021;-73
2022/07/11 10:51:42;;;;;;;1.45;0.50;;;;;;;23.00;68.37;101278.97;5201017;28;20499;-74
2022/07/11 10:54:18;;;;;;;2.43;0.40;;;;;;;23.42;65.66;101268.56;5199906;28;20036;-74
2022/07/11 10:57:04;;;;;;;1.05;0.40;;;;;;;23.00;64.93;101278.97;5188051;28;20283;-73
2022/07/11 10:59:54;;;;;;;1.40;0.52;;;;;;;22.73;67.44;101280.19;5215209;28;20029;-74
2022/07/11 11:02:25;;;;;;;0.93;0.47;;;;;;;22.70;67.57;101271.44;5198649;28;20079;-73
2022/07/11 11:04:58;;;;;;;1.55;0.57;;;;;;;22.27;67.78;101287.16;5200650;28;20623;-74
2022/07/11 11:07:38;;;;;;;1.25;0.32;;;;;;;22.73;67.20;101269.53;5196553;28;20113;-73
2022/07/11 11:10:18;;;;;;;2.58;0.43;;;;;;;22.67;67.94;101282.34;5201028;28;20057;-74
2022/07/11 11:13:09;;;;;;;1.27;0.50;;;;;;;22.28;69.74;101291.53;5200271;28;20033;-74
2022/07/11 11:15:44;;;;;;;1.48;0.50;;;;;;;22.75;69.84;101279.97;5201323;28;20439;-74
2022/07/11 11:18:23;;;;;;;1.95;0.47;;;;;;;23.25;68.99;101274.34;5201957;28;20475;-74
2022/07/11 11:21:03;;;;;;;0.75;0.40;;;;;;;23.50;67.67;101276.81;5199270;28;20116;-73
2022/07/11 11:23:37;;;;;;;3.28;0.50;;;;;;;23.61;65.88;101274.16;5201790;28;20021;-74
2022/07/11 11:26:19;;;;;;;1.77;0.55;;;;;;;23.02;68.03;101275.19;5200881;28;20079;-74
2022/07/11 11:29:06;;;;;;;1.00;0.40;;;;;;;22.93;68.86;101280.38;5200652;28;20033;-74
2022/07/11 11:31:36;;;;;;;3.20;0.55;;;;;;;22.95;67.71;101270.44;5199930;28;20487;-73
2022/07/11 11:34:07;;;;;;;1.35;0.50;;;;;;;23.01;66.37;101272.66;5200413;28;20049;-73
2022/07/11 11:36:37;;;;;;;1.38;0.40;;;;;;;22.54;66.96;101274.50;5201621;28;20529;-73
2022/07/11 11:39:08;;;;;;;0.57;0.32;;;;;;;22.19;67.81;101285.03;5200704;28;20107;-74
2022/07/11 11:41:38;;;;;;;1.67;0.25;;;;;;;22.59;67.50;101280.38;5199993;28;20017;-73
2022/07/11 11:44:08;;;;;;;1.20;0.40;;;;;;;22.83;66.68;101279.38;5201676;28;20022;-74
2022/07/11 11:46:39;;;;;;;3.53;0.40;;;;;;;22.76;65.18;101271.00;5195340;28;20045;-74